Time;durP1;ratioP1;P1;durP2;ratioP2;P2;SDS_P1;SDS_P2;PMS_P1;PMS_P2;Temp;Humidity;BMP_temperature;BMP_pressure;BME280_temperature;BME280_humidity;BME280_pressure;Samples;Min_cycle;Max_cycle;Signal;HPM_P1;HPM_P2
2023/06/02 00:00:23;;;;;;;13.90;6.97;;;;;;;;;;6340892;28;20031;-79
2023/06/02 00:03:29;;;;;;;14.37;6.00;;;;;;;;;;6331622;28;20019;-79
2023/06/02 00:06:34;;;;;;;10.63;5.90;;;;;;;;;;6341067;28;20477;-79
2023/06/02 00:09:38;;;;;;;11.98;6.40;;;;;;;;;;6338771;28;20046;-79
2023/06/02 00:12:38;;;;;;;13.52;6.75;;;;;;;;;;6338763;28;20023;-79
2023/06/02 00:15:40;;;;;;;12.50;6.90;;;;;;;;;;6336282;28;20795;-79
2023/06/02 00:18:40;;;;;;;10.80;6.80;;;;;;;;;;6332676;28;20059;-79
2023/06/02 00:21:41;;;;;;;12.27;6.33;;;;;;;;;;6337548;28;20023;-79
2023/06/02 00:24:41;;;;;;;11.67;6.37;;;;;;;;;;6342844;28;20022;-79
2023/06/02 00:27:42;;;;;;;11.93;7.10;;;;;;;;;;6334086;28;20135;-79
2023/06/02 00:30:43;;;;;;;12.23;6.77;;;;;;;;;;6343580;28;20383;-79
2023/06/02 00:33:43;;;;;;;14.55;6.22;;;;;;;;;;6336631;28;20594;-79
2023/06/02 00:36:43;;;;;;;14.40;6.53;;;;;;;;;;6341525;28;20016;-78
2023/06/02 00:39:44;;;;;;;11.10;6.90;;;;;;;;;;6338339;28;20019;-78
2023/06/02 00:42:45;;;;;;;12.33;7.90;;;;;;;;;;6336613;28;20029;-78
2023/06/02 00:45:45;;;;;;;13.70;8.02;;;;;;;;;;6341236;28;20077;-78
2023/06/02 00:48:47;;;;;;;16.00;6.70;;;;;;;;;;6342729;28;20024;-78
2023/06/02 00:51:48;;;;;;;14.18;7.93;;;;;;;;;;6333070;28;20295;-78
2023/06/02 00:54:48;;;;;;;13.90;8.27;;;;;;;;;;6332797;28;20018;-78
2023/06/02 00:57:51;;;;;;;13.50;7.20;;;;;;;;;;6341304;28;20019;-79
2023/06/02 01:00:52;;;;;;;14.32;8.27;;;;;;;;;;6334543;28;20034;-78
2023/06/02 01:03:52;;;;;;;14.97;6.77;;;;;;;;;;6342390;28;20933;-79
2023/06/02 01:06:54;;;;;;;17.63;7.93;;;;;;;;;;6342083;28;20043;-78
2023/06/02 01:09:56;;;;;;;13.02;6.43;;;;;;;;;;6339907;28;20038;-79
2023/06/02 01:12:56;;;;;;;13.32;6.72;;;;;;;;;;6346211;28;20466;-78
2023/06/02 01:15:57;;;;;;;13.10;7.38;;;;;;;;;;6339648;28;20018;-79
2023/06/02 01:18:59;;;;;;;18.52;9.18;;;;;;;;;;6343942;28;20042;-79
2023/06/02 01:21:59;;;;;;;;;;;;;;;;;;6344609;28;20121;-79
2023/06/02 01:25:00;;;;;;;13.02;6.53;;;;;;;;;;6342288;28;20065;-78
2023/06/02 01:28:02;;;;;;;13.77;6.90;;;;;;;;;;6346455;28;20549;-79
2023/06/02 01:31:12;;;;;;;13.10;8.23;;;;;;;;;;6345483;27;20025;-79
2023/06/02 01:34:20;;;;;;;12.98;6.72;;;;;;;;;;6346743;28;20034;-79
2023/06/02 01:37:21;;;;;;;13.35;7.13;;;;;;;;;;6347083;27;20474;-78
2023/06/02 01:40:24;;;;;;;18.73;7.35;;;;;;;;;;6345337;28;20020;-85
2023/06/02 01:43:25;;;;;;;15.82;7.75;;;;;;;;;;6346205;28;20513;-78
2023/06/02 01:46:25;;;;;;;14.95;7.70;;;;;;;;;;6338136;28;20094;-79
2023/06/02 01:49:25;;;;;;;12.90;7.97;;;;;;;;;;6342406;28;20023;-79
2023/06/02 01:52:26;;;;;;;22.00;8.40;;;;;;;;;;6343211;28;20015;-78
2023/06/02 01:55:26;;;;;;;14.35;8.15;;;;;;;;;;6342262;28;20297;-78
2023/06/02 01:58:26;;;;;;;18.53;9.43;;;;;;;;;;6345758;28;20016;-78
2023/06/02 02:01:30;;;;;;;21.77;9.90;;;;;;;;;;6345425;28;20012;-79
2023/06/02 02:04:30;;;;;;;17.50;9.35;;;;;;;;;;6335885;28;20084;-78
2023/06/02 02:07:31;;;;;;;18.20;10.00;;;;;;;;;;6343532;28;20110;-78
2023/06/02 02:10:31;;;;;;;19.67;8.10;;;;;;;;;;6340290;28;20766;-78
2023/06/02 02:13:31;;;;;;;17.50;9.40;;;;;;;;;;6346299;28;20012;-78
2023/06/02 02:16:31;;;;;;;23.37;9.83;;;;;;;;;;6337733;28;20474;-78
2023/06/02 02:19:31;;;;;;;16.83;8.40;;;;;;;;;;6337815;28;20101;-78
2023/06/02 02:22:32;;;;;;;21.33;10.50;;;;;;;;;;6338199;28;20020;-78
2023/06/02 02:25:32;;;;;;;19.97;8.93;;;;;;;;;;6346086;28;20023;-78
2023/06/02 02:28:32;;;;;;;19.97;9.40;;;;;;;;;;6344685;28;20049;-78
2023/06/02 02:31:33;;;;;;;14.90;9.10;;;;;;;;;;6336750;28;20024;-78
2023/06/02 02:34:33;;;;;;;13.32;8.10;;;;;;;;;;6344254;28;20019;-78
2023/06/02 02:37:33;;;;;;;17.50;9.93;;;;;;;;;;6345104;28;20256;-78
2023/06/02 02:40:33;;;;;;;18.80;8.93;;;;;;;;;;6338733;28;20456;-78
2023/06/02 02:43:34;;;;;;;19.52;10.77;;;;;;;;;;6345194;28;20481;-78
2023/06/02 02:46:34;;;;;;;22.30;9.13;;;;;;;;;;6344938;28;20860;-79
2023/06/02 02:49:34;;;;;;;16.75;8.93;;;;;;;;;;6345080;28;20046;-78
2023/06/02 02:52:35;;;;;;;18.20;8.80;;;;;;;;;;6345150;28;20019;-79
2023/06/02 02:55:37;;;;;;;19.33;8.75;;;;;;;;;;6344156;28;20062;-78
2023/06/02 02:58:39;;;;;;;17.92;9.30;;;;;;;;;;6344685;28;20042;-79
2023/06/02 03:01:44;;;;;;;15.85;8.40;;;;;;;;;;6341566;28;20492;-78
2023/06/02 03:04:45;;;;;;;19.25;8.93;;;;;;;;;;6343139;28;20020;-78
2023/06/02 03:07:46;;;;;;;21.50;9.02;;;;;;;;;;6330677;28;20024;-78
2023/06/02 03:10:46;;;;;;;19.63;9.47;;;;;;;;;;6335995;28;20039;-79
2023/06/02 03:13:46;;;;;;;15.50;7.45;;;;;;;;;;6337368;28;20036;-77
2023/06/02 03:16:48;;;;;;;16.02;8.68;;;;;;;;;;6345397;28;20055;-77
2023/06/02 03:19:48;;;;;;;18.27;10.18;;;;;;;;;;6341126;28;20031;-76
2023/06/02 03:22:49;;;;;;;20.57;9.37;;;;;;;;;;6347317;28;20469;-79
2023/06/02 03:25:51;;;;;;;22.07;9.43;;;;;;;;;;6345802;28;20024;-79
2023/06/02 03:28:52;;;;;;;17.98;9.15;;;;;;;;;;6342618;28;20102;-78
2023/06/02 03:31:54;;;;;;;19.02;9.02;;;;;;;;;;6334922;28;20378;-78
2023/06/02 03:34:54;;;;;;;17.38;8.30;;;;;;;;;;6344951;28;20020;-78
2023/06/02 03:37:54;;;;;;;26.33;9.77;;;;;;;;;;6338756;28;20337;-78
2023/06/02 03:40:55;;;;;;;17.20;8.97;;;;;;;;;;6333984;28;20031;-78
2023/06/02 03:43:55;;;;;;;14.43;8.20;;;;;;;;;;6334204;28;20020;-79
2023/06/02 03:46:55;;;;;;;15.43;8.60;;;;;;;;;;6342463;28;20106;-79
2023/06/02 03:49:55;;;;;;;16.67;8.77;;;;;;;;;;6342845;28;20498;-78
2023/06/02 03:52:55;;;;;;;19.83;9.98;;;;;;;;;;6339542;28;20122;-78
2023/06/02 03:55:56;;;;;;;18.63;10.77;;;;;;;;;;6333327;28;20381;-78
2023/06/02 03:58:56;;;;;;;18.05;8.65;;;;;;;;;;6337564;28;20023;-79
2023/06/02 04:01:56;;;;;;;20.52;9.18;;;;;;;;;;6342721;28;20053;-79
2023/06/02 04:04:57;;;;;;;16.55;9.63;;;;;;;;;;6336624;28;20023;-79
2023/06/02 04:07:57;;;;;;;19.23;10.13;;;;;;;;;;6342658;28;20040;-79
2023/06/02 04:10:57;;;;;;;26.90;10.93;;;;;;;;;;6334571;28;20578;-79
2023/06/02 04:13:57;;;;;;;19.63;9.90;;;;;;;;;;6333705;28;20261;-79
2023/06/02 04:16:58;;;;;;;21.05;10.52;;;;;;;;;;6334327;28;20016;-79
2023/06/02 04:19:58;;;;;;;18.50;9.03;;;;;;;;;;6342126;28;20651;-79
2023/06/02 04:22:59;;;;;;;15.13;8.23;;;;;;;;;;6343406;28;20016;-85
2023/06/02 04:25:59;;;;;;;16.20;8.40;;;;;;;;;;6337863;28;20039;-86
2023/06/02 04:29:00;;;;;;;20.53;10.53;;;;;;;;;;6339996;28;20019;-86
2023/06/02 04:32:01;;;;;;;22.80;10.10;;;;;;;;;;6338237;28;20050;-85
2023/06/02 04:35:02;;;;;;;16.80;8.40;;;;;;;;;;6344416;28;20023;-87
2023/06/02 04:38:03;;;;;;;19.70;8.75;;;;;;;;;;6346534;28;20035;-85
2023/06/02 04:41:06;;;;;;;16.10;7.97;;;;;;;;;;6337617;28;20023;-86
2023/06/02 04:44:08;;;;;;;17.88;7.55;;;;;;;;;;6347715;28;20088;-83
2023/06/02 04:47:10;;;;;;;16.45;8.25;;;;;;;;;;6344333;28;20472;-84
2023/06/02 04:50:12;;;;;;;14.18;7.03;;;;;;;;;;6341022;28;20051;-84
2023/06/02 04:53:14;;;;;;;16.00;7.85;;;;;;;;;;6341346;28;20034;-86
2023/06/02 04:56:14;;;;;;;16.02;7.43;;;;;;;;;;6337077;28;20024;-85
2023/06/02 04:59:14;;;;;;;13.77;7.37;;;;;;;;;;6342923;28;20034;-84
2023/06/02 05:02:15;;;;;;;13.13;7.03;;;;;;;;;;6334953;28;20043;-85
2023/06/02 05:05:15;;;;;;;16.33;7.57;;;;;;;;;;6342552;28;20465;-85
2023/06/02 05:08:15;;;;;;;17.63;6.90;;;;;;;;;;6342329;28;20468;-84
2023/06/02 05:11:15;;;;;;;14.23;6.90;;;;;;;;;;6334338;28;20583;-86
2023/06/02 05:14:15;;;;;;;17.10;6.90;;;;;;;;;;6336467;28;20023;-85
2023/06/02 05:17:20;;;;;;;16.23;6.53;;;;;;;;;;6347338;28;20075;-85
2023/06/02 05:20:20;;;;;;;17.58;7.53;;;;;;;;;;6346902;28;20055;-86
2023/06/02 05:23:21;;;;;;;12.37;6.13;;;;;;;;;;6336734;28;20036;-79
2023/06/02 05:26:21;;;;;;;16.17;6.80;;;;;;;;;;6336187;28;20043;-79
2023/06/02 05:29:21;;;;;;;19.23;7.80;;;;;;;;;;6336826;28;20499;-79
2023/06/02 05:32:24;;;;;;;15.63;6.60;;;;;;;;;;6341418;28;20463;-84
2023/06/02 05:35:24;;;;;;;11.10;5.70;;;;;;;;;;6343924;28;20027;-85
2023/06/02 05:38:25;;;;;;;12.77;6.47;;;;;;;;;;6342817;28;20485;-84
2023/06/02 05:41:28;;;;;;;;;;;;;;;;;;6340694;28;20032;-84
2023/06/02 05:44:29;;;;;;;11.63;5.40;;;;;;;;;;6336502;28;19951;-86
2023/06/02 05:47:30;;;;;;;13.27;5.97;;;;;;;;;;6339286;28;20031;-84
2023/06/02 05:50:30;;;;;;;12.97;5.33;;;;;;;;;;6340154;28;20039;-85
2023/06/02 05:53:30;;;;;;;15.68;5.38;;;;;;;;;;6338152;28;20028;-86
2023/06/02 05:56:31;;;;;;;11.57;5.33;;;;;;;;;;6340137;28;20016;-85
2023/06/02 05:59:31;;;;;;;9.73;5.07;;;;;;;;;;6336543;28;20020;-85
2023/06/02 06:02:31;;;;;;;14.00;4.80;;;;;;;;;;6329648;28;20073;-86
2023/06/02 06:05:31;;;;;;;10.00;4.70;;;;;;;;;;6352630;28;20376;-84
2023/06/02 06:08:32;;;;;;;9.60;5.00;;;;;;;;;;6343405;28;20137;-85
2023/06/02 06:11:33;;;;;;;8.50;4.60;;;;;;;;;;6350086;28;20031;-84
2023/06/02 06:14:33;;;;;;;10.93;4.13;;;;;;;;;;6355122;28;20494;-86
2023/06/02 06:17:34;;;;;;;11.70;4.43;;;;;;;;;;6350868;28;20012;-86
2023/06/02 06:20:34;;;;;;;;;;;;;;;;;;6346792;28;20023;-85
2023/06/02 06:23:34;;;;;;;12.32;3.78;;;;;;;;;;6352437;28;19911;-86
2023/06/02 06:26:34;;;;;;;;;;;;;;;;;;6350596;28;20041;-86
2023/06/02 06:29:34;;;;;;;10.85;3.63;;;;;;;;;;6342408;28;19963;-86
2023/06/02 06:32:34;;;;;;;;;;;;;;;;;;6344001;28;20163;-80
2023/06/02 06:35:35;;;;;;;5.93;3.60;;;;;;;;;;6342477;28;19958;-80
2023/06/02 06:38:35;;;;;;;11.23;4.15;;;;;;;;;;6342549;28;20028;-80
2023/06/02 06:41:40;;;;;;;;;;;;;;;;;;6339425;28;20063;-86
2023/06/02 06:44:41;;;;;;;9.07;3.70;;;;;;;;;;6347342;28;20076;-87
2023/06/02 06:47:42;;;;;;;10.07;3.42;;;;;;;;;;6347562;28;20024;-87
2023/06/02 06:50:42;;;;;;;;;;;;;;;;;;6342322;28;20059;-86
2023/06/02 06:53:42;;;;;;;14.48;4.28;;;;;;;;;;6340995;28;20264;-86
2023/06/02 06:56:43;;;;;;;;;;;;;;;;;;6347235;28;20053;-86
2023/06/02 06:59:45;;;;;;;11.98;4.53;;;;;;;;;;6345232;28;20386;-87
2023/06/02 07:02:48;;;;;;;10.65;4.47;;;;;;;;;;6341774;28;20019;-86
2023/06/02 07:05:48;;;;;;;9.48;4.10;;;;;;;;;;6341892;28;20023;-87
2023/06/02 07:08:48;;;;;;;;;;;;;;;;;;6344250;28;20466;-87
2023/06/02 07:11:48;;;;;;;7.25;4.03;;;;;;;;;;6349326;28;19912;-87
2023/06/02 07:14:50;;;;;;;;;;;;;;;;;;6345029;28;20487;-87
2023/06/02 07:17:50;;;;;;;10.65;3.75;;;;;;;;;;6345279;28;19912;-88
2023/06/02 07:20:50;;;;;;;;;;;;;;;;;;6346735;28;20034;-87
2023/06/02 07:23:50;;;;;;;9.75;4.20;;;;;;;;;;6347062;28;19931;-87
2023/06/02 07:26:53;;;;;;;9.47;4.50;;;;;;;;;;6344909;28;20051;-86
2023/06/02 07:29:53;;;;;;;9.60;3.95;;;;;;;;;;6340547;28;20032;-87
2023/06/02 07:32:53;;;;;;;14.40;4.53;;;;;;;;;;6348005;28;20051;-87
2023/06/02 07:35:55;;;;;;;10.50;4.23;;;;;;;;;;6348316;28;20019;-87
2023/06/02 07:38:56;;;;;;;9.50;4.18;;;;;;;;;;6350557;28;20047;-87
2023/06/02 07:41:56;;;;;;;9.63;3.20;;;;;;;;;;6339151;28;20033;-81
2023/06/02 07:44:56;;;;;;;10.03;3.97;;;;;;;;;;6343173;28;20090;-81
2023/06/02 07:47:56;;;;;;;9.27;4.35;;;;;;;;;;6345853;27;20761;-81
2023/06/02 07:50:57;;;;;;;10.68;4.40;;;;;;;;;;6343675;28;20414;-81
2023/06/02 07:53:57;;;;;;;10.33;4.37;;;;;;;;;;6342857;28;20011;-79
2023/06/02 07:56:57;;;;;;;7.50;3.40;;;;;;;;;;6342479;28;20470;-80
2023/06/02 07:59:57;;;;;;;9.23;4.03;;;;;;;;;;6341679;28;20492;-80
2023/06/02 08:02:57;;;;;;;;;;;;;;;;;;6344965;28;20418;-80
2023/06/02 08:05:58;;;;;;;6.78;4.07;;;;;;;;;;6346268;28;19912;-80
2023/06/02 08:08:58;;;;;;;11.07;2.90;;;;;;;;;;6346110;28;20496;-80
2023/06/02 08:11:58;;;;;;;10.10;3.00;;;;;;;;;;6344414;28;20629;-80
2023/06/02 08:14:58;;;;;;;7.23;3.07;;;;;;;;;;6343110;28;20011;-80
2023/06/02 08:17:59;;;;;;;;;;;;;;;;;;6342608;28;20374;-80
2023/06/02 08:20:59;;;;;;;8.35;3.63;;;;;;;;;;6330612;28;19908;-80
2023/06/02 08:24:00;;;;;;;;;;;;;;;;;;6341754;28;20473;-80
2023/06/02 08:27:00;;;;;;;7.53;3.03;;;;;;;;;;6342349;28;19939;-80
2023/06/02 08:30:02;;;;;;;;;;;;;;;;;;6339684;28;20082;-80
2023/06/02 08:33:05;;;;;;;10.05;3.85;;;;;;;;;;6332399;28;19911;-80
2023/06/02 08:36:07;;;;;;;11.65;4.03;;;;;;;;;;6339201;28;20015;-80
2023/06/02 08:39:08;;;;;;;9.25;3.08;;;;;;;;;;6336566;28;20016;-80
2023/06/02 08:42:09;;;;;;;6.47;3.13;;;;;;;;;;6333817;28;20484;-81
2023/06/02 08:45:09;;;;;;;6.88;3.35;;;;;;;;;;6336845;28;20026;-80
2023/06/02 08:48:13;;;;;;;6.95;3.00;;;;;;;;;;6342590;28;20020;-80
2023/06/02 08:51:15;;;;;;;9.15;3.33;;;;;;;;;;6339056;28;20465;-80
2023/06/02 08:54:17;;;;;;;7.07;3.17;;;;;;;;;;6339371;28;20022;-80
2023/06/02 08:57:21;;;;;;;15.63;3.70;;;;;;;;;;6341210;28;20020;-80
2023/06/02 09:00:21;;;;;;;6.55;3.10;;;;;;;;;;6338885;28;20015;-80
2023/06/02 09:03:25;;;;;;;7.50;2.92;;;;;;;;;;6335926;28;20160;-80
2023/06/02 09:06:26;;;;;;;7.80;2.90;;;;;;;;;;6337261;28;20016;-81
2023/06/02 09:09:37;;;;;;;6.45;3.63;;;;;;;;;;6331871;28;20030;-80
2023/06/02 09:12:50;;;;;;;11.07;4.15;;;;;;;;;;6337655;28;20112;-80
2023/06/02 09:16:00;;;;;;;9.63;3.03;;;;;;;;;;6340669;28;20024;-80
2023/06/02 09:19:01;;;;;;;9.15;3.42;;;;;;;;;;6341863;28;20051;-80
2023/06/02 09:22:04;;;;;;;6.40;3.50;;;;;;;;;;6335632;28;20512;-80
2023/06/02 09:25:19;;;;;;;9.60;3.88;;;;;;;;;;6341883;28;20024;-80
2023/06/02 09:28:19;;;;;;;9.57;4.18;;;;;;;;;;6340814;28;20496;-80
2023/06/02 09:31:20;;;;;;;7.60;4.17;;;;;;;;;;6338588;28;20020;-79
2023/06/02 09:34:21;;;;;;;11.43;4.07;;;;;;;;;;6345953;28;20283;-80
2023/06/02 09:37:23;;;;;;;6.22;3.28;;;;;;;;;;6343073;28;20394;-80
2023/06/02 09:40:27;;;;;;;11.40;3.08;;;;;;;;;;6336892;28;20031;-80
2023/06/02 09:43:28;;;;;;;7.75;3.35;;;;;;;;;;6344721;28;20034;-80
2023/06/02 09:46:38;;;;;;;7.93;3.22;;;;;;;;;;6345607;28;20099;-80
2023/06/02 09:49:42;;;;;;;11.63;4.13;;;;;;;;;;6344015;28;20108;-80
2023/06/02 09:52:42;;;;;;;9.00;3.78;;;;;;;;;;6345521;28;20020;-80
2023/06/02 09:55:43;;;;;;;7.87;3.50;;;;;;;;;;6344944;28;20084;-80
2023/06/02 09:58:43;;;;;;;11.43;3.72;;;;;;;;;;6345693;28;20019;-80
2023/06/02 10:01:43;;;;;;;8.33;2.87;;;;;;;;;;6346976;28;20015;-85
2023/06/02 10:04:45;;;;;;;10.03;3.07;;;;;;;;;;6350356;28;20023;-85
2023/06/02 10:07:45;;;;;;;;;;;;;;;;;;6351184;28;20019;-87
2023/06/02 10:11:04;;;;;;;8.18;3.25;;;;;;;;;;6355951;28;19937;-80
2023/06/02 10:14:22;;;;;;;8.73;3.15;;;;;;;;;;6339030;28;20012;-80
2023/06/02 10:17:25;;;;;;;6.90;2.97;;;;;;;;;;6338506;28;20030;-80
2023/06/02 10:20:44;;;;;;;9.98;3.42;;;;;;;;;;6345465;28;20132;-81
2023/06/02 10:24:13;;;;;;;8.93;3.50;;;;;;;;;;6344831;28;20130;-80
2023/06/02 10:27:25;;;;;;;7.13;3.22;;;;;;;;;;6272440;28;20600;-80
2023/06/02 10:30:25;;;;;;;8.90;3.45;;;;;;;;;;6342361;28;20572;-80
2023/06/02 10:33:47;;;;;;;7.43;3.37;;;;;;;;;;6344603;28;20016;-80
2023/06/02 10:36:57;;;;;;;12.52;3.22;;;;;;;;;;6345443;28;20016;-80
2023/06/02 10:39:57;;;;;;;11.13;3.08;;;;;;;;;;6340647;28;20443;-80
2023/06/02 10:43:12;;;;;;;4.70;3.10;;;;;;;;;;6335665;28;20024;-80
2023/06/02 10:46:17;;;;;;;7.30;3.67;;;;;;;;;;6335330;28;20497;-80
2023/06/02 10:49:36;;;;;;;8.98;3.58;;;;;;;;;;6344096;28;20429;-80
2023/06/02 10:52:55;;;;;;;5.10;2.72;;;;;;;;;;6340584;28;20046;-80
2023/06/02 10:55:55;;;;;;;8.07;3.25;;;;;;;;;;6343686;28;20020;-80
2023/06/02 10:58:55;;;;;;;7.97;2.60;;;;;;;;;;6345425;28;20473;-80
2023/06/02 11:01:56;;;;;;;8.47;2.67;;;;;;;;;;6336903;28;20496;-80
2023/06/02 11:04:56;;;;;;;7.33;2.33;;;;;;;;;;6343655;28;20027;-80
2023/06/02 11:08:12;;;;;;;10.15;2.92;;;;;;;;;;6343761;28;20011;-80
2023/06/02 11:11:32;;;;;;;8.43;3.28;;;;;;;;;;6344154;28;20055;-80
2023/06/02 11:14:54;;;;;;;6.95;3.42;;;;;;;;;;6337154;28;20106;-80
2023/06/02 11:17:55;;;;;;;10.93;2.92;;;;;;;;;;6330038;28;20731;-80
2023/06/02 11:20:55;;;;;;;;;;;;;;;;;;6344621;28;20128;-80
2023/06/02 11:23:55;;;;;;;9.97;3.67;;;;;;;;;;6344148;28;19908;-79
2023/06/02 11:26:56;;;;;;;8.55;2.72;;;;;;;;;;6342510;28;20023;-79
2023/06/02 11:30:06;;;;;;;6.77;3.43;;;;;;;;;;6338439;28;20089;-80
2023/06/02 11:33:07;;;;;;;5.60;2.75;;;;;;;;;;6341482;28;20494;-79
2023/06/02 11:36:08;;;;;;;7.93;3.30;;;;;;;;;;6342440;28;20072;-79
2023/06/02 11:39:09;;;;;;;9.02;3.17;;;;;;;;;;6338295;28;20111;-79
2023/06/02 11:42:09;;;;;;;4.37;2.27;;;;;;;;;;6338127;28;20040;-79
2023/06/02 11:45:22;;;;;;;11.63;2.87;;;;;;;;;;6342729;28;20397;-80
2023/06/02 11:48:25;;;;;;;6.60;3.20;;;;;;;;;;6335274;28;20054;-80
2023/06/02 11:51:26;;;;;;;7.55;3.40;;;;;;;;;;6342367;28;20515;-79
2023/06/02 11:54:26;;;;;;;8.87;2.93;;;;;;;;;;6330236;27;20027;-80
2023/06/02 11:57:33;;;;;;;6.37;2.83;;;;;;;;;;6338853;28;20031;-80
2023/06/02 12:00:35;;;;;;;8.40;2.33;;;;;;;;;;6339573;28;20031;-80
2023/06/02 12:03:36;;;;;;;5.93;2.78;;;;;;;;;;6333818;28;20043;-80
2023/06/02 12:06:45;;;;;;;5.15;2.60;;;;;;;;;;6339562;28;20083;-80
2023/06/02 12:09:48;;;;;;;6.60;3.25;;;;;;;;;;6330699;28;20479;-80
2023/06/02 12:12:48;;;;;;;11.63;4.38;;;;;;;;;;6341985;28;20043;-80
2023/06/02 12:15:48;;;;;;;6.50;2.47;;;;;;;;;;6341574;28;20530;-80
2023/06/02 12:18:49;;;;;;;4.50;2.27;;;;;;;;;;6333888;28;20019;-80
2023/06/02 12:21:53;;;;;;;7.40;2.80;;;;;;;;;;6335276;28;20057;-80
2023/06/02 12:24:54;;;;;;;7.90;2.30;;;;;;;;;;6342359;28;20028;-80
2023/06/02 12:28:05;;;;;;;7.95;3.17;;;;;;;;;;6340677;28;20028;-80
2023/06/02 12:31:06;;;;;;;11.50;3.25;;;;;;;;;;6339737;28;20068;-80
2023/06/02 12:34:06;;;;;;;5.20;2.70;;;;;;;;;;6342085;28;20019;-80
2023/06/02 12:37:07;;;;;;;9.50;2.80;;;;;;;;;;6343318;28;20022;-80
2023/06/02 12:40:07;;;;;;;6.87;2.87;;;;;;;;;;6335510;28;20696;-80
2023/06/02 12:43:07;;;;;;;7.80;2.40;;;;;;;;;;6326564;28;20027;-79
2023/06/02 12:46:08;;;;;;;4.50;2.20;;;;;;;;;;6333817;28;20062;-79
2023/06/02 12:49:12;;;;;;;7.25;2.35;;;;;;;;;;6338187;28;20437;-80
2023/06/02 12:52:13;;;;;;;6.20;2.53;;;;;;;;;;6338161;28;20119;-80
2023/06/02 12:55:15;;;;;;;28.80;3.70;;;;;;;;;;6342436;28;20016;-80
2023/06/02 12:58:15;;;;;;;7.55;2.58;;;;;;;;;;6336643;28;20028;-80
2023/06/02 13:01:15;;;;;;;6.87;3.00;;;;;;;;;;6333820;28;20478;-80
2023/06/02 13:04:16;;;;;;;9.23;3.20;;;;;;;;;;6336548;28;20026;-80
2023/06/02 13:07:16;;;;;;;13.27;2.80;;;;;;;;;;6342107;28;20020;-80
2023/06/02 13:10:16;;;;;;;5.33;2.70;;;;;;;;;;6347612;28;20016;-79
2023/06/02 13:13:17;;;;;;;8.60;2.70;;;;;;;;;;6348678;28;20571;-80
2023/06/02 13:16:17;;;;;;;7.82;3.28;;;;;;;;;;6346351;28;20019;-80
2023/06/02 13:19:18;;;;;;;;;;;;;;;;;;6347020;28;20016;-80
2023/06/02 13:22:19;;;;;;;4.55;2.97;;;;;;;;;;6347100;28;19907;-80
2023/06/02 13:25:19;;;;;;;;;;;;;;;;;;6343753;28;20020;-80
2023/06/02 13:28:20;;;;;;;5.57;2.22;;;;;;;;;;6343803;28;19935;-80
2023/06/02 13:31:20;;;;;;;4.33;1.97;;;;;;;;;;6344466;28;20048;-80
2023/06/02 13:34:20;;;;;;;6.77;3.90;;;;;;;;;;6344460;28;20030;-80
2023/06/02 13:37:21;;;;;;;8.07;3.10;;;;;;;;;;6346680;28;20416;-80
2023/06/02 13:40:28;;;;;;;5.57;2.33;;;;;;;;;;6334683;28;20165;-85
2023/06/02 13:43:28;;;;;;;7.03;2.97;;;;;;;;;;6343925;28;20041;-81
2023/06/02 13:46:28;;;;;;;5.93;2.80;;;;;;;;;;6343900;28;20038;-80
2023/06/02 13:49:28;;;;;;;4.37;2.17;;;;;;;;;;6341237;28;20584;-81
2023/06/02 13:52:28;;;;;;;6.97;3.10;;;;;;;;;;6341128;28;20016;-81
2023/06/02 13:55:30;;;;;;;5.32;2.30;;;;;;;;;;6343632;28;21589;-81
2023/06/02 13:58:35;;;;;;;;;;;;;;;;;;6342278;28;20445;-80
2023/06/02 14:01:35;;;;;;;10.38;2.97;;;;;;;;;;6341028;28;19918;-81
2023/06/02 14:04:35;;;;;;;4.33;2.30;;;;;;;;;;6340721;28;20031;-81
2023/06/02 14:07:35;;;;;;;6.50;2.50;;;;;;;;;;6343087;28;20027;-81
2023/06/02 14:10:36;;;;;;;7.27;2.30;;;;;;;;;;6344902;28;20041;-81
2023/06/02 14:13:36;;;;;;;9.35;3.03;;;;;;;;;;6343546;28;20488;-81
2023/06/02 14:16:36;;;;;;;7.32;3.28;;;;;;;;;;6344417;28;20016;-81
2023/06/02 14:19:37;;;;;;;5.33;2.53;;;;;;;;;;6344285;28;20091;-82
2023/06/02 14:22:37;;;;;;;10.23;3.30;;;;;;;;;;6344810;28;20221;-82
2023/06/02 14:25:37;;;;;;;5.77;2.80;;;;;;;;;;6345281;28;20032;-82
2023/06/02 14:28:37;;;;;;;7.05;2.60;;;;;;;;;;6344696;28;20576;-81
2023/06/02 14:31:37;;;;;;;8.07;3.03;;;;;;;;;;6341439;28;20116;-82
2023/06/02 14:34:38;;;;;;;7.27;3.20;;;;;;;;;;6334975;28;20088;-82
2023/06/02 14:37:38;;;;;;;9.10;3.50;;;;;;;;;;6344224;28;20089;-82
2023/06/02 14:40:38;;;;;;;7.77;3.00;;;;;;;;;;6336945;27;20055;-81
2023/06/02 14:43:38;;;;;;;8.17;3.83;;;;;;;;;;6341044;28;20462;-81
2023/06/02 14:46:40;;;;;;;6.93;3.73;;;;;;;;;;6345118;28;20381;-80
2023/06/02 14:49:41;;;;;;;14.45;6.43;;;;;;;;;;6343160;28;20383;-81
2023/06/02 14:52:42;;;;;;;14.80;7.93;;;;;;;;;;6345672;28;20027;-85
2023/06/02 14:55:42;;;;;;;9.02;3.10;;;;;;;;;;6346646;28;20012;-85
2023/06/02 14:58:42;;;;;;;17.37;6.80;;;;;;;;;;6341291;28;20078;-85
2023/06/02 15:01:43;;;;;;;7.10;3.50;;;;;;;;;;6346776;28;20073;-85
2023/06/02 15:04:43;;;;;;;8.13;3.37;;;;;;;;;;6337576;28;20488;-85
2023/06/02 15:07:43;;;;;;;8.10;3.03;;;;;;;;;;6345935;27;20047;-87
2023/06/02 15:10:45;;;;;;;7.63;2.43;;;;;;;;;;6347473;28;20691;-85
2023/06/02 15:13:46;;;;;;;5.00;3.03;;;;;;;;;;6346214;28;20482;-87
2023/06/02 15:16:46;;;;;;;7.30;3.30;;;;;;;;;;6341926;28;20018;-86
2023/06/02 15:19:47;;;;;;;7.50;2.77;;;;;;;;;;6344449;28;20023;-84
2023/06/02 15:22:47;;;;;;;5.78;2.65;;;;;;;;;;6324407;28;20015;-84
2023/06/02 15:25:47;;;;;;;7.10;3.20;;;;;;;;;;6345871;28;20138;-85
2023/06/02 15:28:48;;;;;;;6.37;3.57;;;;;;;;;;6343586;28;20019;-84
2023/06/02 15:31:48;;;;;;;6.67;3.47;;;;;;;;;;6340898;28;20026;-85
2023/06/02 15:34:48;;;;;;;10.67;3.70;;;;;;;;;;6343343;28;20049;-85
2023/06/02 15:37:49;;;;;;;5.10;2.93;;;;;;;;;;6340572;28;20758;-86
2023/06/02 15:40:49;;;;;;;6.00;2.50;;;;;;;;;;6341457;28;20486;-85
2023/06/02 15:43:49;;;;;;;8.23;3.40;;;;;;;;;;6342194;28;20111;-84
2023/06/02 15:46:51;;;;;;;6.63;2.67;;;;;;;;;;6343625;28;20019;-85
2023/06/02 15:49:51;;;;;;;6.38;3.35;;;;;;;;;;6341912;28;20119;-86
2023/06/02 15:52:51;;;;;;;5.80;3.27;;;;;;;;;;6343246;28;20437;-85
2023/06/02 15:55:52;;;;;;;5.30;2.57;;;;;;;;;;6344352;28;20016;-85
2023/06/02 15:58:52;;;;;;;7.97;2.83;;;;;;;;;;6342593;28;20026;-85
2023/06/02 16:01:55;;;;;;;5.57;3.13;;;;;;;;;;6337834;28;20592;-85
2023/06/02 16:04:56;;;;;;;4.43;2.88;;;;;;;;;;6339901;28;20015;-85
2023/06/02 16:07:57;;;;;;;5.93;2.65;;;;;;;;;;6340198;28;20033;-84
2023/06/02 16:10:57;;;;;;;7.27;2.80;;;;;;;;;;6345607;28;20454;-84
2023/06/02 16:13:57;;;;;;;9.73;3.20;;;;;;;;;;6337373;28;20038;-85
2023/06/02 16:16:57;;;;;;;7.47;3.30;;;;;;;;;;6346148;28;20065;-86
2023/06/02 16:19:58;;;;;;;5.37;2.73;;;;;;;;;;6346535;28;20012;-85
2023/06/02 16:22:58;;;;;;;4.97;2.73;;;;;;;;;;6342710;28;20102;-85
2023/06/02 16:25:58;;;;;;;7.27;2.97;;;;;;;;;;6344876;28;20022;-85
2023/06/02 16:28:58;;;;;;;11.43;4.67;;;;;;;;;;6345219;28;20024;-85
2023/06/02 16:31:59;;;;;;;8.57;4.27;;;;;;;;;;6341067;28;20563;-85
2023/06/02 16:34:59;;;;;;;11.27;3.60;;;;;;;;;;6341719;28;20012;-85
2023/06/02 16:38:00;;;;;;;8.77;4.13;;;;;;;;;;6351200;28;20024;-85
2023/06/02 16:41:01;;;;;;;7.23;4.00;;;;;;;;;;6339191;28;20480;-84
2023/06/02 16:44:03;;;;;;;7.50;3.30;;;;;;;;;;6342192;28;20035;-84
2023/06/02 16:47:03;;;;;;;7.68;3.55;;;;;;;;;;6342661;28;20325;-85
2023/06/02 16:50:03;;;;;;;11.47;3.83;;;;;;;;;;6340588;28;20043;-85
2023/06/02 16:53:05;;;;;;;12.00;4.35;;;;;;;;;;6346880;28;20043;-86
2023/06/02 16:56:05;;;;;;;10.90;3.97;;;;;;;;;;6346610;28;20612;-86
2023/06/02 16:59:07;;;;;;;9.10;3.23;;;;;;;;;;6346908;28;20012;-85
2023/06/02 17:02:07;;;;;;;13.40;4.80;;;;;;;;;;6345838;28;20021;-84
2023/06/02 17:05:07;;;;;;;9.23;4.68;;;;;;;;;;6346125;28;20049;-85
2023/06/02 17:08:07;;;;;;;15.60;4.43;;;;;;;;;;6349209;28;20039;-86
2023/06/02 17:11:08;;;;;;;13.07;3.47;;;;;;;;;;6343632;28;20047;-85
2023/06/02 17:14:08;;;;;;;12.20;4.10;;;;;;;;;;6342873;28;20515;-85
2023/06/02 17:17:09;;;;;;;8.57;4.03;;;;;;;;;;6349762;28;20012;-85
2023/06/02 17:20:10;;;;;;;11.93;5.23;;;;;;;;;;6347594;28;20019;-84
2023/06/02 17:23:10;;;;;;;10.15;4.40;;;;;;;;;;6342571;28;20466;-86
2023/06/02 17:26:11;;;;;;;10.67;3.83;;;;;;;;;;6341455;28;20036;-86
2023/06/02 17:29:13;;;;;;;7.57;4.00;;;;;;;;;;6340341;28;20024;-84
2023/06/02 17:32:18;;;;;;;;;;;;;;;;;;6341138;28;20388;-86
2023/06/02 17:35:18;;;;;;;6.88;3.38;;;;;;;;;;6352163;28;19908;-85
2023/06/02 17:38:19;;;;;;;6.83;3.40;;;;;;;;;;6350748;28;20028;-85
2023/06/02 17:41:27;;;;;;;8.73;4.50;;;;;;;;;;6339187;28;20028;-87
2023/06/02 17:44:28;;;;;;;6.82;3.53;;;;;;;;;;6347417;28;20020;-85
2023/06/02 17:47:28;;;;;;;5.97;3.80;;;;;;;;;;6346358;28;20484;-86
2023/06/02 17:50:29;;;;;;;7.13;4.00;;;;;;;;;;6353321;28;20390;-86
2023/06/02 17:53:30;;;;;;;18.97;5.03;;;;;;;;;;6355963;28;20113;-84
2023/06/02 17:56:32;;;;;;;12.00;4.43;;;;;;;;;;6356543;28;20063;-86
2023/06/02 17:59:33;;;;;;;11.70;4.18;;;;;;;;;;6359974;28;20508;-86
2023/06/02 18:02:35;;;;;;;10.23;4.63;;;;;;;;;;6358814;28;20027;-87
2023/06/02 18:05:36;;;;;;;12.40;4.80;;;;;;;;;;6358912;28;20015;-85
2023/06/02 18:08:36;;;;;;;11.47;6.13;;;;;;;;;;6336129;28;20135;-86